createdAt,value
2022-11-10T00:01:41.047Z,98738.28
2022-11-10T00:04:15.560Z,98739.16
2022-11-10T00:06:49.091Z,98736.01
2022-11-10T00:09:21.125Z,98737.77
2022-11-10T00:11:53.017Z,98736.88
2022-11-10T00:14:43.039Z,98737.77
2022-11-10T00:17:14.929Z,98741.27
2022-11-10T00:19:46.644Z,98743.91
2022-11-10T00:22:18.461Z,98743.92
2022-11-10T00:24:50.198Z,98740.58
2022-11-10T00:27:22.160Z,98740.75
2022-11-10T00:29:54.012Z,98742.16
2022-11-10T00:32:26.002Z,98743.58
2022-11-10T00:34:57.829Z,98742.69
2022-11-10T00:37:29.674Z,98742.16
2022-11-10T00:40:01.511Z,98745.85
2022-11-10T00:42:33.244Z,98750.08
2022-11-10T00:45:05.692Z,98747.60
2022-11-10T00:47:37.600Z,98741.81
2022-11-10T00:50:11.067Z,98740.77
2022-11-10T00:52:42.812Z,98743.21
2022-11-10T00:55:15.410Z,98746.55
2022-11-10T00:57:47.223Z,98746.38
2022-11-10T01:00:19.713Z,98744.98
2022-11-10T01:02:51.658Z,98749.20
2022-11-10T01:05:23.856Z,98744.06
2022-11-10T01:07:55.832Z,98747.58
2022-11-10T01:10:27.839Z,98751.66
2022-11-10T01:12:59.633Z,98754.81
2022-11-10T01:15:31.464Z,98759.88
2022-11-10T01:18:03.286Z,98765.17
2022-11-10T01:20:35.849Z,98771.14
2022-11-10T01:23:07.826Z,98771.30
2022-11-10T01:25:39.613Z,98770.95
2022-11-10T01:28:11.420Z,98776.58
2022-11-10T01:30:43.157Z,98773.74
2022-11-10T01:33:14.939Z,98773.58
2022-11-10T01:35:46.808Z,98780.78
2022-11-10T01:38:18.679Z,98778.67
2022-11-10T01:40:50.572Z,98779.20
2022-11-10T01:43:22.821Z,98783.59
2022-11-10T01:45:56.349Z,98785.69
2022-11-10T01:48:33.288Z,98787.61
2022-11-10T01:51:09.189Z,98788.85
2022-11-10T01:53:43.646Z,98794.30
2022-11-10T01:56:16.635Z,98794.13
2022-11-10T01:58:52.626Z,98792.53
2022-11-10T02:01:25.153Z,98786.57
2022-11-10T02:03:58.906Z,98798.52
2022-11-10T02:06:33.114Z,98801.85
2022-11-10T02:09:05.217Z,98802.38
2022-11-10T02:11:37.397Z,98804.30
2022-11-10T02:14:09.759Z,98801.48
2022-11-10T02:16:42.216Z,98799.70
2022-11-10T02:19:21.773Z,98805.16
2022-11-10T02:21:53.704Z,98802.17
2022-11-10T02:24:25.421Z,98804.98
2022-11-10T02:26:58.636Z,98813.80
2022-11-10T02:29:30.312Z,98817.46
2022-11-10T02:32:02.635Z,98818.36
2022-11-10T02:34:34.528Z,98821.70
2022-11-10T02:37:06.417Z,98820.27
2022-11-10T02:39:38.506Z,98817.09
2022-11-10T02:42:10.619Z,98817.11
2022-11-10T02:44:42.732Z,98825.38
2022-11-10T02:47:14.466Z,98824.66
2022-11-10T02:49:46.254Z,98827.30
2022-11-10T02:52:18.060Z,98826.26
2022-11-10T02:54:49.862Z,98826.95
2022-11-10T02:57:21.594Z,98824.30
2022-11-10T02:59:53.594Z,98830.45
2022-11-10T03:02:29.712Z,98838.02
2022-11-10T03:05:04.153Z,98835.93
2022-11-10T03:07:35.898Z,98835.24
2022-11-10T03:10:09.092Z,98838.05
2022-11-10T03:12:40.986Z,98835.61
2022-11-10T03:15:13.621Z,98843.70
2022-11-10T03:17:45.637Z,98843.73
2022-11-10T03:20:17.447Z,98850.10
2022-11-10T03:22:49.512Z,98853.64
2022-11-10T03:25:21.505Z,98847.49
2022-11-10T03:27:53.320Z,98847.14
2022-11-10T03:30:25.070Z,98845.91
2022-11-10T03:32:56.829Z,98853.12
2022-11-10T03:35:28.849Z,98850.86
2022-11-10T03:38:00.600Z,98855.25
2022-11-10T03:40:50.799Z,98858.60
2022-11-10T03:43:25.212Z,98855.97
2022-11-10T03:45:57.281Z,98855.09
2022-11-10T03:48:29.111Z,98855.96
2022-11-10T03:51:01.178Z,98860.20
2022-11-10T03:53:33.029Z,98850.17
2022-11-10T03:56:05.820Z,98851.58
2022-11-10T03:58:38.061Z,98860.55
2022-11-10T04:01:10.248Z,98868.83
2022-11-10T04:03:42.065Z,98871.29
2022-11-10T04:06:32.187Z,98861.60
2022-11-10T04:09:04.128Z,98866.70
2022-11-10T04:11:53.375Z,98870.94
2022-11-10T04:14:42.608Z,98872.52
2022-11-10T04:17:14.822Z,98869.71
2022-11-10T04:19:46.720Z,98862.32
2022-11-10T04:22:39.738Z,98870.40
2022-11-10T04:25:12.166Z,98875.16
2022-11-10T04:27:43.899Z,98874.99
2022-11-10T04:30:16.073Z,98889.08
2022-11-10T04:32:47.992Z,98889.42
2022-11-10T04:35:19.892Z,98893.82
2022-11-10T04:37:51.724Z,98897.34
2022-11-10T04:40:23.495Z,98899.81
2022-11-10T04:42:55.451Z,98904.21
2022-11-10T04:45:27.267Z,98908.96
2022-11-10T04:47:59.304Z,98906.33
2022-11-10T04:50:31.044Z,98908.61
2022-11-10T04:53:02.995Z,98909.32
2022-11-10T04:55:34.816Z,98912.12
2022-11-10T04:58:06.664Z,98913.20
2022-11-10T05:00:38.953Z,98912.30
2022-11-10T05:03:12.177Z,98914.59
2022-11-10T05:05:44.249Z,98915.83
2022-11-10T05:08:16.241Z,98920.93
2022-11-10T05:10:48.601Z,98924.10
2022-11-10T05:13:20.647Z,98921.27
2022-11-10T05:15:53.418Z,98923.20
2022-11-10T05:18:25.351Z,98918.98
2022-11-10T05:20:57.161Z,98924.98
2022-11-10T05:23:42.081Z,98930.80
2022-11-10T05:26:15.412Z,98937.15
2022-11-10T05:28:48.448Z,98931.16
2022-11-10T05:31:20.361Z,98940.30
2022-11-10T05:33:52.157Z,98942.08
2022-11-10T05:36:24.168Z,98948.05
2022-11-10T05:38:55.972Z,98951.59
2022-11-10T05:41:27.939Z,98953.34
2022-11-10T05:43:59.798Z,98955.27
2022-11-10T05:46:32.342Z,98959.51
2022-11-10T05:49:04.343Z,98963.39
2022-11-10T05:51:36.361Z,98963.05
2022-11-10T05:54:08.712Z,98973.96
2022-11-10T05:56:40.913Z,98977.14
2022-11-10T05:59:12.800Z,98984.35
2022-11-10T06:01:44.500Z,98994.58
2022-11-10T06:04:16.548Z,99002.33
2022-11-10T06:06:48.478Z,99002.50
2022-11-10T06:09:20.484Z,99007.42
2022-11-10T06:11:53.269Z,99016.77
2022-11-10T06:14:26.294Z,99027.00
2022-11-10T06:16:58.772Z,99028.23
2022-11-10T06:19:33.884Z,99027.35
2022-11-10T06:22:08.880Z,99026.81
2022-11-10T06:24:42.241Z,99034.56
2022-11-10T06:27:15.176Z,99037.75
2022-11-10T06:29:48.150Z,99037.21
2022-11-10T06:32:21.572Z,99039.85
2022-11-10T06:34:59.269Z,99045.85
2022-11-10T06:37:33.147Z,99049.20
2022-11-10T06:40:11.013Z,99052.55
2022-11-10T06:42:44.306Z,99049.00
2022-11-10T06:45:16.984Z,99059.05
2022-11-10T06:47:49.131Z,99059.76
2022-11-10T06:50:23.299Z,99061.88
2022-11-10T06:52:58.088Z,99066.11
2022-11-10T06:55:30.658Z,99071.77
2022-11-10T06:58:04.297Z,99078.45
2022-11-10T07:00:38.270Z,99077.92
2022-11-10T07:03:11.651Z,99080.02
2022-11-10T07:05:44.617Z,99086.38
2022-11-10T07:08:18.136Z,99094.14
2022-11-10T07:21:09.325Z,99107.70
2022-11-10T07:23:42.427Z,99111.59
2022-11-10T07:26:15.239Z,99115.98
2022-11-10T07:28:48.796Z,99121.98
2022-11-10T07:31:22.905Z,99131.49
2022-11-10T07:33:58.500Z,99134.48
2022-11-10T07:36:34.617Z,99124.10
2022-11-10T07:39:07.860Z,99124.98
2022-11-10T07:41:40.567Z,99124.45
2022-11-10T07:44:13.377Z,99121.64
2022-11-10T07:46:47.331Z,99124.27
2022-11-10T07:49:20.966Z,99145.79
2022-11-10T07:51:53.508Z,99151.60
2022-11-10T07:54:26.336Z,99158.30
2022-11-10T07:57:00.842Z,99162.36
2022-11-10T07:59:33.471Z,99164.29
2022-11-10T08:02:08.351Z,99171.16
2022-11-10T08:04:40.568Z,99171.17
2022-11-10T08:07:13.050Z,99177.34
2022-11-10T08:09:48.511Z,99182.81
2022-11-10T08:12:22.901Z,99186.85
2022-11-10T08:14:55.557Z,99187.21
2022-11-10T08:17:31.885Z,99188.63
2022-11-10T08:20:04.820Z,99190.75
2022-11-10T08:22:38.377Z,99186.52
2022-11-10T08:25:12.317Z,99191.82
2022-11-10T08:27:44.357Z,99200.46
2022-11-10T08:30:17.843Z,99193.58
2022-11-10T08:32:50.168Z,99193.59
2022-11-10T08:35:23.849Z,99198.16
2022-11-10T08:37:56.526Z,99204.88
2022-11-10T08:40:30.342Z,99212.11
2022-11-10T08:43:04.026Z,99215.82
2022-11-10T08:45:38.984Z,99219.35
2022-11-10T08:48:14.603Z,99223.05
2022-11-10T08:50:47.423Z,99220.57
2022-11-10T08:53:21.869Z,99227.63
2022-11-10T08:55:55.495Z,99230.63
2022-11-10T08:58:28.214Z,99238.42
2022-11-10T09:01:03.329Z,99239.30
2022-11-10T09:03:35.568Z,99238.94
2022-11-10T09:06:10.599Z,99244.41
2022-11-10T09:08:43.099Z,99249.35
2022-11-10T09:11:15.348Z,99251.64
2022-11-10T09:13:48.889Z,99254.83
2022-11-10T09:16:21.854Z,99261.19
2022-11-10T09:18:55.254Z,99264.18
2022-11-10T09:21:27.913Z,99265.96
2022-11-10T09:24:01.748Z,99272.14
2022-11-10T09:26:34.302Z,99276.72
2022-11-10T09:29:08.144Z,99280.40
2022-11-10T09:31:42.029Z,99279.52
2022-11-10T09:34:14.254Z,99277.73
2022-11-10T09:36:47.210Z,99278.28
2022-11-10T09:39:20.988Z,99275.83
2022-11-10T09:41:53.330Z,99282.71
2022-11-10T09:44:29.880Z,99289.08
2022-11-10T09:47:05.377Z,99287.66
2022-11-10T09:49:39.610Z,99290.84
2022-11-10T09:52:13.410Z,99292.95
2022-11-10T09:54:47.530Z,99288.36
2022-11-10T09:57:24.210Z,99295.42
2022-11-10T09:59:57.430Z,99301.59
2022-11-10T10:02:34.296Z,99303.00
2022-11-10T10:05:27.886Z,99305.29
2022-11-10T10:08:03.927Z,99309.01
2022-11-10T10:10:43.203Z,99310.77
2022-11-10T10:13:32.542Z,99319.59
2022-11-10T10:16:13.647Z,99324.38
2022-11-10T10:18:54.861Z,99325.25
2022-11-10T10:21:36.634Z,99325.08
2022-11-10T10:24:21.137Z,99327.54
2022-11-10T10:26:56.158Z,99326.98
2022-11-10T10:29:37.081Z,99328.55
2022-11-10T10:32:15.310Z,99334.19
2022-11-10T10:34:50.144Z,99338.24
2022-11-10T10:37:28.571Z,99338.08
2022-11-10T10:40:00.510Z,99341.42
2022-11-10T10:42:35.783Z,99343.55
2022-11-10T10:45:24.377Z,99345.85
2022-11-10T10:47:58.203Z,99344.42
2022-11-10T10:50:33.400Z,99341.63
2022-11-10T10:53:28.269Z,99344.98
2022-11-10T10:56:03.721Z,99346.55
2022-11-10T10:58:38.272Z,99344.96
2022-11-10T11:01:25.722Z,99345.34
2022-11-10T11:03:58.617Z,99350.39
2022-11-10T11:06:32.161Z,99349.81
2022-11-10T11:09:10.125Z,99356.86
2022-11-10T11:11:45.500Z,99358.10
2022-11-10T11:14:22.154Z,99360.04
2022-11-10T11:16:56.260Z,99360.58
2022-11-10T11:19:33.782Z,99361.64
2022-11-10T11:22:39.963Z,99359.50
2022-11-10T11:25:21.699Z,99362.52
2022-11-10T11:28:04.293Z,99367.64
2022-11-10T11:30:46.464Z,99371.68
2022-11-10T11:33:31.007Z,99367.09
2022-11-10T11:36:07.346Z,99366.73
2022-11-10T11:38:49.152Z,99369.38
2022-11-10T11:41:30.340Z,99371.48
2022-11-10T11:44:14.618Z,99376.23
2022-11-10T11:46:56.189Z,99372.27
2022-11-10T11:49:47.293Z,99369.10
2022-11-10T11:52:25.175Z,99368.55
2022-11-10T11:55:07.818Z,99373.51
2022-11-10T11:57:50.237Z,99375.80
2022-11-10T12:00:22.986Z,99375.06
2022-11-10T12:03:25.963Z,99374.34
2022-11-10T12:06:13.545Z,99374.56
2022-11-10T12:08:49.218Z,99377.22
2022-11-10T12:11:26.006Z,99384.81
2022-11-10T12:14:06.375Z,99387.30
2022-11-10T12:16:39.198Z,99387.84
2022-11-10T12:19:23.489Z,99384.29
2022-11-10T12:21:59.150Z,99383.58
2022-11-10T12:24:43.245Z,99384.26
2022-11-10T12:27:20.589Z,99379.38
2022-11-10T12:30:00.083Z,99379.59
2022-11-10T12:32:36.187Z,99381.23
2022-11-10T12:35:13.850Z,99381.55
2022-11-10T12:37:47.874Z,99380.88
2022-11-10T12:40:23.817Z,99386.02
2022-11-10T12:42:59.833Z,99383.09
2022-11-10T12:45:35.805Z,99389.10
2022-11-10T12:48:08.432Z,99393.21
2022-11-10T12:50:50.015Z,99397.56
2022-11-10T12:53:24.597Z,99399.02
2022-11-10T12:56:01.654Z,99398.27
2022-11-10T12:58:36.328Z,99399.40
2022-11-10T13:01:18.773Z,99398.20
2022-11-10T13:03:58.696Z,99402.88
2022-11-10T13:06:32.372Z,99406.65
2022-11-10T13:09:06.923Z,99408.55
2022-11-10T13:11:42.041Z,99413.16
2022-11-10T13:14:27.100Z,99412.98
2022-11-10T13:16:59.485Z,99413.73
2022-11-10T13:19:58.973Z,99413.69
2022-11-10T13:22:40.596Z,99419.44
2022-11-10T13:25:50.339Z,99421.64
2022-11-10T13:29:02.949Z,99424.58
2022-11-10T13:31:58.744Z,99430.45
2022-11-10T13:34:32.793Z,99430.51
2022-11-10T13:37:28.237Z,99431.77
2022-11-10T13:43:58.353Z,99431.14
2022-11-10T13:46:49.345Z,99435.75
2022-11-10T13:49:34.817Z,99438.94
2022-11-10T13:52:17.516Z,99444.13
2022-11-10T13:55:25.249Z,99447.13
2022-11-10T13:58:03.117Z,99453.54
2022-11-10T14:00:36.362Z,99458.55
2022-11-10T14:03:17.885Z,99465.12
2022-11-10T14:06:16.931Z,99472.58
2022-11-10T14:08:54.138Z,99483.08
2022-11-10T14:11:28.979Z,99486.29
2022-11-10T14:14:04.884Z,99488.95
2022-11-10T14:16:42.961Z,99486.69
2022-11-10T14:19:31.313Z,99492.20
2022-11-10T14:22:07.813Z,99492.37
2022-11-10T14:24:53.707Z,99487.95
2022-11-10T14:27:28.989Z,99491.31
2022-11-10T14:30:24.888Z,99494.34
2022-11-10T14:33:03.170Z,99495.25
2022-11-10T14:35:50.523Z,99506.25
2022-11-10T14:38:25.145Z,99514.04
2022-11-10T14:41:00.311Z,99516.00
2022-11-10T14:43:33.852Z,99519.36
2022-11-10T14:46:08.961Z,99525.74
2022-11-10T14:48:41.784Z,99531.23
2022-11-10T14:51:18.658Z,99536.58
2022-11-10T14:53:52.012Z,99541.15
2022-11-10T14:56:27.221Z,99540.11
2022-11-10T14:58:59.830Z,99538.33
2022-11-10T15:01:35.323Z,99544.35
2022-11-10T15:04:12.165Z,99546.64
2022-11-10T15:06:48.031Z,99542.93
2022-11-10T15:09:28.849Z,99545.59
2022-11-10T15:12:24.295Z,99550.90
2022-11-10T15:15:04.371Z,99550.54
2022-11-10T15:17:51.413Z,99552.66
2022-11-10T15:20:38.598Z,99557.98
2022-11-10T15:23:26.110Z,99559.39
2022-11-10T15:26:02.859Z,99564.70
2022-11-10T15:28:36.371Z,99564.35
2022-11-10T15:31:12.556Z,99571.42
2022-11-10T15:33:49.143Z,99577.26
2022-11-10T15:36:33.240Z,99578.33
2022-11-10T15:39:08.170Z,99583.80
2022-11-10T15:41:44.082Z,99586.11
2022-11-10T15:44:21.406Z,99580.27
2022-11-10T15:46:56.298Z,99581.69
2022-11-10T15:49:31.647Z,99585.04
2022-11-10T15:52:06.130Z,99586.64
2022-11-10T15:54:39.020Z,99596.54
2022-11-10T15:57:15.862Z,99604.66
2022-11-10T15:59:48.902Z,99611.55
2022-11-10T16:02:24.465Z,99614.21
2022-11-10T16:04:59.782Z,99618.24
2022-11-10T16:07:32.283Z,99618.05
2022-11-10T16:10:04.644Z,99624.59
2022-11-10T16:12:39.288Z,99626.36
2022-11-10T16:15:25.419Z,99626.51
2022-11-10T16:17:59.010Z,99630.40
2022-11-10T16:20:31.249Z,99630.03
2022-11-10T16:23:03.899Z,99632.86
2022-11-10T16:25:38.490Z,99636.75
2022-11-10T16:28:14.172Z,99642.92
2022-11-10T16:30:46.788Z,99645.21
2022-11-10T16:33:21.061Z,99646.96
2022-11-10T16:35:55.392Z,99651.39
2022-11-10T16:38:29.233Z,99657.55
2022-11-10T16:41:03.750Z,99658.94
2022-11-10T16:43:37.491Z,99663.84
2022-11-10T16:46:20.222Z,99667.67
2022-11-10T16:48:53.709Z,99673.99
2022-11-10T16:51:30.956Z,99681.71
2022-11-10T16:54:03.356Z,99688.89
2022-11-10T16:56:36.378Z,99699.41
2022-11-10T16:59:13.234Z,99704.95
2022-11-10T17:01:47.713Z,99713.85
2022-11-10T17:04:20.703Z,99720.48
2022-11-10T17:06:54.397Z,99735.80
2022-11-10T17:09:28.449Z,99737.17
2022-11-10T17:12:01.521Z,99731.63
2022-11-10T17:14:35.007Z,99737.40
2022-11-10T17:17:08.903Z,99746.55
2022-11-10T17:19:42.055Z,99756.23
2022-11-10T17:22:17.755Z,99766.59
2022-11-10T17:24:55.063Z,99766.23
2022-11-10T17:27:27.827Z,99766.04
2022-11-10T17:30:00.249Z,99769.02
2022-11-10T17:33:02.972Z,99770.41
2022-11-10T17:35:28.876Z,99771.84
2022-11-10T17:38:03.784Z,99780.70
2022-11-10T17:40:37.768Z,99779.96
2022-11-10T17:43:13.246Z,99782.42
2022-11-10T17:45:45.349Z,99780.45
2022-11-10T17:48:19.045Z,99771.39
2022-11-10T17:50:52.796Z,99783.70
2022-11-10T17:53:28.578Z,99785.74
2022-11-10T17:56:03.069Z,99792.08
2022-11-10T17:58:35.138Z,99799.25
2022-11-10T18:01:11.888Z,99801.29
2022-11-10T18:03:43.871Z,99799.45
2022-11-10T18:06:18.371Z,99805.17
2022-11-10T18:08:50.239Z,99811.05
2022-11-10T18:11:24.387Z,99808.36
2022-11-10T18:13:57.161Z,99804.77
2022-11-10T18:16:30.501Z,99805.77
2022-11-10T18:19:06.339Z,99802.69
2022-11-10T18:21:38.210Z,99799.42
2022-11-10T18:24:11.489Z,99796.52
2022-11-10T18:26:43.933Z,99799.42
2022-11-10T18:29:16.289Z,99807.13
2022-11-10T18:31:49.089Z,99809.94
2022-11-10T18:34:23.363Z,99807.26
2022-11-10T18:36:56.910Z,99809.36
2022-11-10T18:39:29.565Z,99806.85
2022-11-10T18:42:03.672Z,99808.03
2022-11-10T18:44:39.296Z,99809.10
2022-11-10T18:47:15.497Z,99811.02
2022-11-10T18:49:48.652Z,99813.44
2022-11-10T18:52:20.833Z,99812.73
2022-11-10T18:54:53.542Z,99818.39
2022-11-10T18:57:25.369Z,99820.80
2022-11-10T18:59:57.573Z,99816.83
2022-11-10T19:02:31.365Z,99826.98
2022-11-10T19:05:07.233Z,99825.67
2022-11-10T19:07:40.935Z,99826.45
2022-11-10T19:10:14.709Z,99829.70
2022-11-10T19:12:47.474Z,99832.27
2022-11-10T19:15:20.197Z,99831.84
2022-11-10T19:17:54.371Z,99837.58
2022-11-10T19:20:27.212Z,99841.40
2022-11-10T19:23:00.135Z,99843.10
2022-11-10T19:25:33.823Z,99846.42
2022-11-10T19:28:09.253Z,99847.63
2022-11-10T19:30:42.166Z,99849.57
2022-11-10T19:33:17.597Z,99857.30
2022-11-10T19:35:51.255Z,99862.02
2022-11-10T19:38:26.839Z,99867.02
2022-11-10T19:40:59.507Z,99877.91
2022-11-10T19:43:34.300Z,99877.36
2022-11-10T19:46:09.915Z,99886.47
2022-11-10T19:48:42.900Z,99891.09
2022-11-10T19:51:16.563Z,99894.30
2022-11-10T19:53:51.791Z,99901.84
2022-11-10T19:56:31.616Z,99901.27
2022-11-10T19:59:06.377Z,99899.95
2022-11-10T20:01:40.119Z,99903.05
2022-11-10T20:04:13.803Z,99910.91
2022-11-10T20:06:47.990Z,99917.55
2022-11-10T20:09:23.553Z,99912.58
2022-11-10T20:11:57.341Z,99908.48
2022-11-10T20:14:30.983Z,99913.27
2022-11-10T20:17:04.479Z,99922.34
2022-11-10T20:19:40.703Z,99927.35
2022-11-10T20:22:13.744Z,99938.50
2022-11-10T20:24:51.029Z,99932.47
2022-11-10T20:27:23.948Z,99934.16
2022-11-10T20:29:55.859Z,99941.13
2022-11-10T20:32:28.811Z,99942.02
2022-11-10T20:35:05.018Z,99936.02
2022-11-10T20:37:37.138Z,99927.45
2022-11-10T20:40:42.397Z,99919.12
2022-11-10T20:43:08.217Z,99927.69
2022-11-10T20:45:43.564Z,99936.02
2022-11-10T20:48:15.749Z,99933.17
2022-11-10T20:50:50.595Z,99929.44
2022-11-10T20:53:26.555Z,99931.27
2022-11-10T20:56:03.966Z,99931.73
2022-11-10T20:58:40.408Z,99931.57
2022-11-10T21:01:17.319Z,99933.73
2022-11-10T21:03:51.997Z,99934.56
2022-11-10T21:06:24.741Z,99938.59
2022-11-10T21:08:57.859Z,99941.31
2022-11-10T21:11:48.088Z,99937.96
2022-11-10T21:14:21.282Z,99930.41
2022-11-10T21:17:01.385Z,99931.04
2022-11-10T21:19:39.514Z,99933.80
2022-11-10T21:22:12.278Z,99937.07
2022-11-10T21:24:46.545Z,99944.45
2022-11-10T21:27:22.361Z,99946.34
2022-11-10T21:29:55.988Z,99940.08
2022-11-10T21:32:28.950Z,99945.15
2022-11-10T21:35:04.462Z,99949.39
2022-11-10T21:37:37.175Z,99947.67
2022-11-10T21:40:12.240Z,99951.77
2022-11-10T21:42:45.042Z,99952.89
2022-11-10T21:45:18.885Z,99958.02
2022-11-10T21:47:51.709Z,99959.07
2022-11-10T21:50:24.556Z,99957.61
2022-11-10T21:52:58.904Z,99962.17
2022-11-10T21:55:32.059Z,99963.41
2022-11-10T21:58:12.255Z,99962.88
2022-11-10T22:00:45.235Z,99957.55
2022-11-10T22:03:21.495Z,99955.69
2022-11-10T22:05:55.449Z,99959.20
2022-11-10T22:08:29.217Z,99962.89
2022-11-10T22:11:19.825Z,99966.87
2022-11-10T22:14:10.236Z,99970.98
2022-11-10T22:17:09.115Z,99971.67
2022-11-10T22:19:41.268Z,99973.89
2022-11-10T22:22:17.861Z,99973.73
2022-11-10T22:24:53.804Z,99970.97
2022-11-10T22:27:27.065Z,99974.20
2022-11-10T22:29:59.931Z,99974.15
2022-11-10T22:32:37.240Z,99974.73
2022-11-10T22:35:33.370Z,99977.41
2022-11-10T22:38:10.055Z,99968.86
2022-11-10T22:41:01.087Z,99972.12
2022-11-10T22:43:50.451Z,99968.21
2022-11-10T22:46:24.208Z,99966.96
2022-11-10T22:48:56.154Z,99966.00
2022-11-10T22:51:30.302Z,99960.67
2022-11-10T22:54:06.259Z,99957.21
2022-11-10T22:56:40.510Z,99953.58
2022-11-10T22:59:13.790Z,99954.87
2022-11-10T23:01:46.693Z,99955.16
2022-11-10T23:04:21.799Z,99954.90
2022-11-10T23:06:55.691Z,99955.79
2022-11-10T23:09:28.626Z,99962.15
2022-11-10T23:12:03.893Z,99961.46
2022-11-10T23:14:38.599Z,99964.31
2022-11-10T23:17:10.930Z,99962.44
2022-11-10T23:19:44.408Z,99968.56
2022-11-10T23:22:18.629Z,99973.64
2022-11-10T23:24:56.750Z,99974.95
2022-11-10T23:27:29.959Z,99981.89
2022-11-10T23:30:02.867Z,99979.84
2022-11-10T23:32:35.533Z,99984.81
2022-11-10T23:35:08.883Z,99989.75
2022-11-10T23:37:42.841Z,99995.58
2022-11-10T23:40:23.319Z,99991.06
2022-11-10T23:42:56.660Z,99991.63
2022-11-10T23:45:52.739Z,99993.46
2022-11-10T23:48:23.263Z,99997.44
2022-11-10T23:50:58.820Z,100003.65
2022-11-10T23:53:34.271Z,100003.90
2022-11-10T23:56:11.906Z,100002.67
2022-11-10T23:58:46.446Z,100005.67
